• Join FlightAware (Why Join?)
  • Login
  • US Flag 
04:51PM EDT


 

Airport Tracker/Info


-or-


 

Live Flight TrackerFlight Track Log ✈ DAL6119 ✈ 22-Oct-2013 ✈ KSDF - KLGA

Flight Track Log - Related Links

Times and Time Zones

All times are in EDT time to prevent confusion due to time zone crossing. See the DAL6119 flight status page for this flight to view local times or setup timezone preferences in your user account.

Time Position Orientation Groundspeed Altitude Reporting Facility
EDT Latitude Longitude Course Direction KTS MPH feet Rate Location/Type
06:06PM 38.0764 -85.6872 90° East 221 254 4,900  Level Indianapolis Center
06:07PM 38.0722 -85.5919 93° East 261 300 6,900 2,040 Climbing Indianapolis Center
06:08PM 38.3440 -85.1220 100° East  Level Estimated
06:08PM 38.0739 -85.4892 89° East 282 325 9,200  Level Indianapolis Center
06:09PM 38.2662 -84.9928 127° Southeast  Level FlightAware Approximate
06:09PM 38.0719 -85.3533 91° East 314 361 10,900  Level Indianapolis Center
06:10PM 38.3094 -84.8394 90° East  Level Estimated
06:10PM 38.0639 -85.2231 94° East 357 411 12,100  Level Indianapolis Center
06:11PM 38.3484 -84.7004 90° East  Level Estimated
06:11PM 38.0444 -85.0914 101° East 377 434 13,600  Level Indianapolis Center
06:12PM 38.0281 -84.9558 99° East 387 445 15,000 1,140 Climbing Indianapolis Center
06:13PM 38.0100 -84.8144 99° East 405 466 16,000 1,020 Climbing Indianapolis Center
06:14PM 37.9889 -84.6461 99° East 412 474 17,200 1,020 Climbing Indianapolis Center
06:15PM 37.9700 -84.4967 99° East 424 488 18,200 960 Climbing Indianapolis Center
06:16PM 37.9608 -84.3419 94° East 438 504 19,200 960 Climbing Indianapolis Center
06:17PM 37.9539 -84.1844 93° East 446 513 20,200 900 Climbing Indianapolis Center
06:18PM 37.9467 -84.0239 93° East 453 521 21,100 900 Climbing Indianapolis Center
06:19PM 37.9394 -83.8614 93° East 458 527 22,100 1,020 Climbing Indianapolis Center
06:21PM 37.9317 -83.6639 93° East 476 548 23,300 1,020 Climbing Indianapolis Center
06:22PM 37.9231 -83.4975 94° East 473 544 24,300 780 Climbing Indianapolis Center
06:23PM 37.9133 -83.3281 94° East 479 551 25,000 180 Climbing Indianapolis Center
06:25PM 37.9167 -82.9669 89° East 524 603 25,000 240 Level Indianapolis Center
06:26PM 37.9300 -82.7822 85° East 525 604 25,800 900 Climbing Indianapolis Center
06:27PM 37.9275 -82.5736 91° East 508 585 26,900 960 Climbing Indianapolis Center
06:28PM 37.8689 -82.4311 117° Southeast 467 537 27,900 960 Climbing Indianapolis Center
06:29PM 37.7914 -82.3103 129° Southeast 442 509 28,900 840 Climbing Indianapolis Center
06:30PM 37.7194 -82.1939 128° Southeast 425 489 29,700 720 Climbing Indianapolis Center
06:31PM 37.6444 -82.0781 129° Southeast 422 486 30,500 720 Climbing Indianapolis Center
06:32PM 37.5681 -81.9589 129° Southeast 431 496 31,300 780 Climbing Indianapolis Center
06:33PM 37.4786 -81.8147 128° Southeast 443 510 32,200 720 Climbing Indianapolis Center
06:34PM 37.4031 -81.6889 127° Southeast 447 514 32,900 660 Climbing Indianapolis Center
06:35PM 37.3500 -81.5369 114° Southeast 492 566 33,600 720 Climbing Indianapolis Center
06:36PM 37.3900 -81.3531 75° East 539 620 34,500 660 Climbing Indianapolis Center
06:37PM 37.4703 -81.1933 58° Northeast 550 633 35,000 240 Climbing Indianapolis Center
06:38PM 37.5686 -80.9956 58° Northeast 565 650 35,000  Level Indianapolis Center
06:39PM 37.6481 -80.8292 59° Northeast 568 654 35,000  Level Indianapolis Center
06:40PM 37.7292 -80.6622 58° Northeast 570 656 35,000  Level Indianapolis Center
06:41PM 37.7964 -80.5300 57° Northeast 575 662 35,000  Level Washington Center
06:42PM 37.8333 -80.3378 76° East 562 647 35,000  Level Washington Center
06:43PM 37.8450 -80.1386 86° East 554 638 35,000  Level Washington Center
06:44PM 37.8594 -79.9239 85° East 562 647 35,000  Level Washington Center
06:45PM 37.8706 -79.7219 86° East 562 647 35,000  Level Washington Center
06:46PM 37.8836 -79.5253 85° East 567 652 35,000  Level Washington Center
06:47PM 37.8922 -79.3231 87° East 567 652 35,000  Level Washington Center
06:48PM 37.9044 -79.1211 86° East 567 652 35,000  Level Washington Center
06:49PM 37.9269 -78.9194 82° East 572 658 35,000  Level Washington Center
06:50PM 37.9511 -78.7178 81° East 572 658 35,000  Level Washington Center
06:51PM 37.9747 -78.5289 81° East 579 666 35,000  Level Washington Center
06:52PM 37.9961 -78.3294 82° East 579 666 35,000  Level Washington Center
06:53PM 38.0153 -78.1247 83° East 579 666 35,000  Level Washington Center
06:54PM 38.0275 -77.9219 86° East 573 659 35,000  Level Washington Center
06:55PM 38.0397 -77.7194 86° East 573 659 35,000  Level Washington Center
06:56PM 38.0514 -77.5167 86° East 573 659 35,000  Level Washington Center
06:57PM 38.0628 -77.3114 86° East 573 659 35,000 -480 Level Washington Center
06:58PM 38.0761 -77.1058 85° East 578 665 34,100 -540 Descending Washington Center
06:59PM 38.0869 -76.9003 86° East 578 665 34,000 -60 Descending Washington Center
07:00PM 38.1097 -76.6975 82° East 578 665 34,000  Level Washington Center
07:01PM 38.1986 -76.5269 56° Northeast 558 642 34,000 -180 Level Washington Center
07:02PM 38.3247 -76.4017 38° Northeast 547 629 33,700 -1,140 Descending Washington Center
07:03PM 38.4528 -76.2756 38° Northeast 559 643 31,800 -2,040 Descending Washington Center
07:04PM 38.5911 -76.1414 37° Northeast 564 649 29,700 -1,800 Descending Washington Center
07:05PM 38.7125 -76.0228 37° Northeast 564 649 28,200 -1,260 Descending Washington Center
07:06PM 38.8317 -75.9089 37° Northeast 547 629 27,200 -660 Descending Washington Center
07:07PM 38.9422 -75.7917 39° Northeast 527 606 26,900 -300 Descending Washington Center
07:08PM 39.0550 -75.6853 36° Northeast 516 594 26,700 -960 Descending Washington Center
07:09PM 39.1656 -75.5808 36° Northeast 506 582 25,000 -1,380 Descending Washington Center
07:10PM 39.2739 -75.4789 36° Northeast 495 570 23,900 -1,380 Descending Washington Center
07:11PM 39.3842 -75.3847 33° Northeast 485 558 22,400 -1,680 Descending Washington Center
07:12PM 39.4964 -75.2822 35° Northeast 485 558 20,600 -1,740 Descending Washington Center
07:13PM 39.6003 -75.1850 36° Northeast 478 550 18,900 -1,680 Descending Washington Center
07:14PM 39.6897 -75.1061 34° Northeast 452 520 17,300 -1,620 Descending Washington Center
07:15PM 39.7975 -75.0108 34° Northeast 427 491 15,800 -1,560 Descending Washington Center
07:16PM 39.8847 -74.9344 34° Northeast 414 476 14,200 -1,800 Descending Washington Center
07:17PM 40.0000 -74.7833 45° Northeast 391 450 11,700 -1,620 Descending New York TRACON
07:18PM 40.0833 -74.6833 43° Northeast 378 435 10,300 -900 Descending New York TRACON
07:19PM 40.1333 -74.5833 57° Northeast 365 420 10,000 -180 Descending New York TRACON
07:20PM 40.2167 -74.4833 42° Northeast 367 422 10,000 -60 Level New York TRACON
07:21PM 40.2833 -74.4000 44° Northeast 330 380 9,900 -600 Descending New York TRACON
07:22PM 40.3500 -74.3333 37° Northeast 299 344 8,900 -1,020 Descending New York TRACON
07:23PM 40.4167 -74.2667 37° Northeast 297 342 8,000 -1,020 Descending New York TRACON
07:24PM 40.4833 -74.2000 37° Northeast 292 336 6,900 -1,080 Descending New York TRACON
07:25PM 40.5333 -74.1333 45° Northeast 279 321 5,900 -1,080 Descending New York TRACON
07:26PM 40.5833 -74.0667 45° Northeast 271 312 4,900 -900 Descending New York TRACON
07:27PM 40.6500 -74.0167 30° Northeast 262 302 4,100 -420 Descending New York TRACON
07:28PM 40.7000 -73.9500 45° Northeast 267 307 4,100 -60 Level New York TRACON
07:29PM 40.7333 -73.8667 62° Northeast 270 311 4,000  Descending New York TRACON
07:30PM 40.7833 -73.7833 52° Northeast 267 307 4,100 -300 Climbing New York TRACON
07:31PM 40.8333 -73.7333 37° Northeast 255 293 3,500 -600 Descending New York TRACON
07:32PM 40.9000 -73.7000 21° North 233 268 3,000 -600 Descending New York TRACON
07:33PM 40.9167 -73.7500 294° West 183 211 2,300 -540 Descending New York TRACON
07:34PM 40.8833 -73.8000 229° Southwest 174 200 2,000 -480 Descending New York TRACON
07:35PM 40.8500 -73.8167 201° Southwest 133 153 1,400 -660 Descending New York TRACON
07:36PM 40.8167 -73.8500 217° Southwest 133 153 700 -720 Descending New York TRACON